createdAt,value
2023-03-13T03:01:22.881Z,58.79
2023-03-13T03:03:52.052Z,58.65
2023-03-13T03:06:20.816Z,58.62
2023-03-13T03:08:50.379Z,58.82
2023-03-13T03:11:19.834Z,58.96
2023-03-13T03:13:51.857Z,58.93
2023-03-13T03:16:20.868Z,58.79
2023-03-13T03:18:49.693Z,58.83
2023-03-13T03:21:18.585Z,58.97
2023-03-13T03:23:51.085Z,59.03
2023-03-13T03:26:20.034Z,59.08
2023-03-13T03:28:48.920Z,58.92
2023-03-13T03:31:19.586Z,59.04
2023-03-13T03:33:49.167Z,58.89
2023-03-13T03:36:20.855Z,59.09
2023-03-13T03:38:50.004Z,59.21
2023-03-13T03:41:21.688Z,59.13
2023-03-13T03:43:50.679Z,59.19
2023-03-13T03:46:22.328Z,59.20
2023-03-13T03:48:51.193Z,59.22
2023-03-13T03:51:19.809Z,59.38
2023-03-13T03:53:49.173Z,59.33
2023-03-13T03:56:18.143Z,59.38
2023-03-13T03:58:50.724Z,59.44
2023-03-13T04:01:44.483Z,59.33
2023-03-13T04:04:13.766Z,59.41
2023-03-13T04:06:45.714Z,59.37
2023-03-13T04:09:14.967Z,59.34
2023-03-13T04:11:44.278Z,59.35
2023-03-13T04:14:14.076Z,59.34
2023-03-13T04:16:42.608Z,59.58
2023-03-13T04:19:11.864Z,59.43
2023-03-13T04:21:40.822Z,59.69
2023-03-13T04:24:14.082Z,59.77
2023-03-13T04:26:44.407Z,59.67
2023-03-13T04:29:13.545Z,59.68
2023-03-13T04:31:57.161Z,59.67
2023-03-13T04:34:58.128Z,59.67
2023-03-13T04:37:39.077Z,59.63
2023-03-13T04:40:27.145Z,59.92
2023-03-13T04:43:27.376Z,60.11
2023-03-13T04:46:19.354Z,60.01
2023-03-13T04:49:15.272Z,60.16
2023-03-13T04:52:13.518Z,60.18
2023-03-13T04:54:54.205Z,60.15
2023-03-13T04:57:42.891Z,60.00
2023-03-13T05:00:24.914Z,60.12
2023-03-13T05:03:32.440Z,60.33
2023-03-13T05:06:27.305Z,60.47
2023-03-13T05:08:56.082Z,60.30
2023-03-13T05:11:47.967Z,60.43
2023-03-13T05:14:35.380Z,60.40
2023-03-13T05:17:23.158Z,60.66
2023-03-13T05:20:11.670Z,60.63
2023-03-13T05:22:50.385Z,60.76
2023-03-13T05:25:39.319Z,60.59
2023-03-13T05:28:10.784Z,60.56
2023-03-13T05:30:54.522Z,60.77
2023-03-13T05:33:58.890Z,60.77
2023-03-13T05:36:56.927Z,60.98
2023-03-13T05:39:44.312Z,60.94
2023-03-13T05:42:42.141Z,60.96
2023-03-13T05:45:30.004Z,60.84
2023-03-13T05:48:15.950Z,61.00
2023-03-13T05:51:07.590Z,61.11
2023-03-13T05:53:51.912Z,61.20
2023-03-13T05:56:33.143Z,61.20
2023-03-13T05:59:22.693Z,61.15
2023-03-13T06:02:09.805Z,61.38
2023-03-13T06:04:42.284Z,61.41
2023-03-13T06:07:12.676Z,61.39
2023-03-13T06:09:42.064Z,61.41
2023-03-13T06:12:13.052Z,61.49
2023-03-13T06:14:42.489Z,61.41
2023-03-13T06:17:26.100Z,61.51
2023-03-13T06:19:55.773Z,61.57
2023-03-13T06:22:24.969Z,61.61
2023-03-13T06:24:54.281Z,61.75
2023-03-13T06:27:22.876Z,61.55
2023-03-13T06:29:52.008Z,61.58
2023-03-13T06:32:21.329Z,61.75
2023-03-13T06:34:51.186Z,61.65
2023-03-13T06:37:20.134Z,61.77
2023-03-13T06:39:49.365Z,61.90
2023-03-13T06:42:18.723Z,61.87
2023-03-13T06:44:48.636Z,61.78
2023-03-13T06:47:18.129Z,61.84
2023-03-13T06:49:46.469Z,61.87
2023-03-13T06:52:15.916Z,61.94
2023-03-13T06:54:45.542Z,62.12
2023-03-13T06:57:14.603Z,62.12
2023-03-13T06:59:43.624Z,62.22
2023-03-13T07:02:13.667Z,62.30
2023-03-13T07:04:45.340Z,62.30
2023-03-13T07:07:25.725Z,62.21
2023-03-13T07:10:01.118Z,62.36
2023-03-13T07:12:30.363Z,62.33
2023-03-13T07:14:58.614Z,62.46
2023-03-13T07:17:27.765Z,62.45
2023-03-13T07:19:57.175Z,62.55
2023-03-13T07:22:25.503Z,62.55
2023-03-13T07:24:53.822Z,62.68
2023-03-13T07:27:23.391Z,62.66
2023-03-13T07:29:52.312Z,62.82
2023-03-13T07:32:20.933Z,62.61
2023-03-13T07:34:49.441Z,62.82
2023-03-13T07:37:17.998Z,62.75
2023-03-13T07:39:46.395Z,63.00
2023-03-13T07:42:15.327Z,62.93
2023-03-13T07:44:44.536Z,63.00
2023-03-13T07:47:13.935Z,63.08
2023-03-13T07:49:44.744Z,63.05
2023-03-13T07:52:14.073Z,63.04
2023-03-13T07:54:43.755Z,63.05
2023-03-13T07:57:13.617Z,63.27
2023-03-13T07:59:45.494Z,63.22
2023-03-13T08:02:14.524Z,63.22
2023-03-13T08:04:44.065Z,63.36
2023-03-13T08:07:13.554Z,63.19
2023-03-13T08:09:43.473Z,63.21
2023-03-13T08:12:12.948Z,63.15
2023-03-13T08:14:42.342Z,63.70
2023-03-13T08:17:11.590Z,63.51
2023-03-13T08:19:40.937Z,63.49
2023-03-13T08:22:10.009Z,63.51
2023-03-13T08:24:39.259Z,63.56
2023-03-13T08:27:08.638Z,63.52
2023-03-13T08:29:37.909Z,63.58
2023-03-13T08:32:06.630Z,63.68
2023-03-13T08:34:39.064Z,63.57
2023-03-13T08:37:07.415Z,63.60
2023-03-13T08:39:36.631Z,63.73
2023-03-13T08:42:05.797Z,63.64
2023-03-13T08:44:34.998Z,63.52
2023-03-13T08:47:07.038Z,63.73
2023-03-13T08:49:36.422Z,63.69
2023-03-13T08:52:06.921Z,63.64
2023-03-13T08:54:36.919Z,63.56
2023-03-13T08:57:06.227Z,63.55
2023-03-13T08:59:35.403Z,63.81
2023-03-13T09:02:05.233Z,63.78
2023-03-13T09:04:34.639Z,63.54
2023-03-13T09:07:03.613Z,63.61
2023-03-13T09:09:32.802Z,63.78
2023-03-13T09:12:01.842Z,63.98
2023-03-13T09:14:31.356Z,63.69
2023-03-13T09:17:00.984Z,63.85
2023-03-13T09:19:30.155Z,63.82
2023-03-13T09:21:59.470Z,63.67
2023-03-13T09:24:28.689Z,63.86
2023-03-13T09:27:01.272Z,63.70
2023-03-13T09:29:31.590Z,63.77
2023-03-13T09:32:00.071Z,63.73
2023-03-13T09:34:29.210Z,63.74
2023-03-13T09:36:58.668Z,63.67
2023-03-13T09:39:28.018Z,63.67
2023-03-13T09:42:21.466Z,63.93
2023-03-13T09:45:00.819Z,63.99
2023-03-13T09:47:49.077Z,64.10
2023-03-13T09:50:28.007Z,64.05
2023-03-13T09:53:05.020Z,64.15
2023-03-13T09:55:38.659Z,64.31
2023-03-13T09:58:25.139Z,64.04
2023-03-13T10:01:06.423Z,64.05
2023-03-13T10:03:52.469Z,63.94
2023-03-13T10:06:23.454Z,64.11
2023-03-13T10:08:53.469Z,64.05
2023-03-13T10:11:43.172Z,64.16
2023-03-13T10:14:42.490Z,64.17
2023-03-13T10:17:20.500Z,64.29
2023-03-13T10:19:58.137Z,64.19
2023-03-13T10:22:32.080Z,64.26
2023-03-13T10:25:11.171Z,64.18
2023-03-13T10:27:46.158Z,64.28
2023-03-13T10:30:25.395Z,64.28
2023-03-13T10:32:59.825Z,64.36
2023-03-13T10:35:35.504Z,64.48
2023-03-13T10:38:25.299Z,64.37
2023-03-13T10:41:05.881Z,64.58
2023-03-13T10:43:35.396Z,64.50
2023-03-13T10:46:04.674Z,64.42
2023-03-13T10:48:37.973Z,64.51
2023-03-13T10:51:23.510Z,64.46
2023-03-13T10:53:52.966Z,64.36
2023-03-13T10:56:31.160Z,64.40
2023-03-13T10:59:01.382Z,64.40
2023-03-13T11:01:42.490Z,64.43
2023-03-13T11:04:32.264Z,64.46
2023-03-13T11:07:16.883Z,64.40
2023-03-13T11:09:59.908Z,64.38
2023-03-13T11:12:33.838Z,64.65
2023-03-13T11:15:14.585Z,64.63
2023-03-13T11:17:43.966Z,64.68
2023-03-13T11:20:27.985Z,64.54
2023-03-13T11:23:16.517Z,64.55
2023-03-13T11:26:05.333Z,64.74
2023-03-13T11:28:59.157Z,64.68
2023-03-13T11:31:40.978Z,64.70
2023-03-13T11:34:33.842Z,64.78
2023-03-13T11:37:06.975Z,64.85
2023-03-13T11:40:12.908Z,65.02
2023-03-13T11:42:52.181Z,64.99
2023-03-13T11:45:54.231Z,64.97
2023-03-13T11:48:32.684Z,65.11
2023-03-13T11:51:13.820Z,65.03
2023-03-13T11:54:05.400Z,65.05
2023-03-13T11:56:42.841Z,65.05
2023-03-13T11:59:26.055Z,65.13
2023-03-13T12:02:25.811Z,65.23
2023-03-13T12:05:02.601Z,65.27
2023-03-13T12:07:48.862Z,65.34
2023-03-13T12:10:48.044Z,65.62
2023-03-13T12:13:23.529Z,65.48
2023-03-13T12:15:57.703Z,65.60
2023-03-13T12:18:45.200Z,65.58
2023-03-13T12:21:29.230Z,65.54
2023-03-13T12:24:16.694Z,65.59
2023-03-13T12:26:51.889Z,65.60
2023-03-13T12:29:45.780Z,65.61
2023-03-13T12:32:21.381Z,65.69
2023-03-13T12:35:05.142Z,65.66
2023-03-13T12:37:48.564Z,65.76
2023-03-13T12:40:30.606Z,65.71
2023-03-13T12:43:25.384Z,65.72
2023-03-13T12:46:01.605Z,65.80
2023-03-13T12:48:34.230Z,65.75
2023-03-13T12:51:31.882Z,65.84
2023-03-13T12:54:11.323Z,65.80
2023-03-13T12:57:08.736Z,65.68
2023-03-13T12:59:42.721Z,66.13
2023-03-13T13:02:22.760Z,66.21
2023-03-13T13:04:58.176Z,66.07
2023-03-13T13:07:34.190Z,66.06
2023-03-13T13:10:11.984Z,66.19
2023-03-13T13:12:47.647Z,65.98
2023-03-13T13:15:27.982Z,66.09
2023-03-13T13:18:16.011Z,66.10
2023-03-13T13:20:50.785Z,66.30
2023-03-13T13:23:42.582Z,66.20
2023-03-13T13:26:38.330Z,66.37
2023-03-13T13:29:13.897Z,66.32
2023-03-13T13:31:46.541Z,66.25
2023-03-13T13:34:55.329Z,66.29
2023-03-13T13:37:24.949Z,66.40
2023-03-13T13:40:10.301Z,66.47
2023-03-13T13:42:48.177Z,66.71
2023-03-13T13:45:17.793Z,66.47
2023-03-13T13:47:51.089Z,66.54
2023-03-13T13:50:25.977Z,66.53
2023-03-13T13:53:29.670Z,66.74
2023-03-13T13:56:03.970Z,66.97
2023-03-13T13:58:33.666Z,66.68
2023-03-13T14:01:12.272Z,66.78
2023-03-13T14:03:45.084Z,66.93
2023-03-13T14:06:31.319Z,66.83
2023-03-13T14:09:30.047Z,66.88
2023-03-13T14:11:59.018Z,66.76
2023-03-13T14:14:28.244Z,67.09
2023-03-13T14:16:58.572Z,67.12
2023-03-13T14:19:54.185Z,67.08
2023-03-13T14:22:23.571Z,67.03
2023-03-13T14:24:59.312Z,67.17
2023-03-13T14:27:28.648Z,67.28
2023-03-13T14:30:03.693Z,67.36
2023-03-13T14:32:33.164Z,67.38
2023-03-13T14:35:02.464Z,67.36
2023-03-13T14:37:42.474Z,67.41
2023-03-13T14:40:28.854Z,67.41
2023-03-13T14:43:03.131Z,67.51
2023-03-13T14:45:40.407Z,67.55
2023-03-13T14:48:21.836Z,67.46
2023-03-13T14:51:05.459Z,67.60
2023-03-13T14:54:02.000Z,67.59
2023-03-13T14:56:42.559Z,67.62
2023-03-13T14:59:19.733Z,67.46
2023-03-13T15:02:00.016Z,67.81
2023-03-13T15:04:51.056Z,67.94
2023-03-13T15:07:21.434Z,67.78
2023-03-13T15:09:51.177Z,68.08
2023-03-13T15:12:23.775Z,67.98
2023-03-13T15:14:53.803Z,68.15
2023-03-13T15:17:25.308Z,68.07
2023-03-13T15:19:59.401Z,68.17
2023-03-13T15:22:33.398Z,68.15
2023-03-13T15:25:06.371Z,68.12
2023-03-13T15:27:37.039Z,68.28
2023-03-13T15:30:06.918Z,68.25
2023-03-13T15:32:38.999Z,68.23
2023-03-13T15:35:27.999Z,68.23
2023-03-13T15:37:59.356Z,68.37
2023-03-13T15:40:31.559Z,68.45
2023-03-13T15:43:00.969Z,68.43
2023-03-13T15:45:29.990Z,68.55
2023-03-13T15:48:02.782Z,68.51
2023-03-13T15:50:31.973Z,68.57
2023-03-13T15:53:04.570Z,68.68
2023-03-13T15:55:33.933Z,68.46
2023-03-13T15:58:03.965Z,68.64
2023-03-13T16:04:58.980Z,68.86
2023-03-13T16:07:28.400Z,68.90
2023-03-13T16:09:57.159Z,68.88
2023-03-13T16:12:25.679Z,68.94
2023-03-13T16:14:54.874Z,68.96
2023-03-13T16:17:23.453Z,69.04
2023-03-13T16:19:52.072Z,69.05
2023-03-13T16:22:20.506Z,69.17
2023-03-13T16:24:49.102Z,69.21
2023-03-13T16:27:21.497Z,69.27
2023-03-13T16:29:50.661Z,69.21
2023-03-13T16:32:24.890Z,69.14
2023-03-13T16:34:54.195Z,69.29
2023-03-13T16:37:22.965Z,69.28
2023-03-13T16:39:52.267Z,69.39
2023-03-13T16:42:21.860Z,69.36
2023-03-13T16:44:50.880Z,69.33
2023-03-13T16:47:28.313Z,69.51
2023-03-13T16:49:57.591Z,69.57
2023-03-13T16:52:26.797Z,69.47
2023-03-13T16:54:55.461Z,69.43
2023-03-13T16:57:26.574Z,69.53
2023-03-13T16:59:55.195Z,69.69
2023-03-13T17:02:24.451Z,69.81
2023-03-13T17:04:53.582Z,69.62
2023-03-13T17:07:25.297Z,69.66
2023-03-13T17:09:54.138Z,69.80
2023-03-13T17:12:23.267Z,69.76
2023-03-13T17:14:52.560Z,69.81
2023-03-13T17:17:23.505Z,69.97
2023-03-13T17:19:51.926Z,69.94
2023-03-13T17:22:20.811Z,69.89
2023-03-13T17:24:49.935Z,69.84
2023-03-13T17:27:18.800Z,70.04
2023-03-13T17:29:47.433Z,70.00
2023-03-13T17:32:15.902Z,70.18
2023-03-13T17:34:44.286Z,70.00
2023-03-13T17:37:22.140Z,70.06
2023-03-13T17:39:51.739Z,70.08
2023-03-13T17:42:21.899Z,70.26
2023-03-13T17:44:50.874Z,70.25
2023-03-13T17:47:24.312Z,70.21
2023-03-13T17:49:53.184Z,70.30
2023-03-13T17:52:22.209Z,70.27
2023-03-13T17:54:51.221Z,70.38
2023-03-13T17:57:22.346Z,70.27
2023-03-13T17:59:51.163Z,70.27
2023-03-13T18:02:20.273Z,70.33
2023-03-13T18:04:49.855Z,70.32
2023-03-13T18:07:28.276Z,70.40
2023-03-13T18:09:57.186Z,70.36
2023-03-13T18:12:25.464Z,70.52
2023-03-13T18:14:53.868Z,70.38
2023-03-13T18:17:24.810Z,70.61
2023-03-13T18:19:53.245Z,70.51
2023-03-13T18:22:22.588Z,70.41
2023-03-13T18:24:50.968Z,70.54
2023-03-13T18:27:22.445Z,70.57
2023-03-13T18:29:51.560Z,70.46
2023-03-13T18:32:20.831Z,70.52
2023-03-13T18:34:49.589Z,70.54
2023-03-13T18:37:28.935Z,70.51
2023-03-13T18:39:58.296Z,70.50
2023-03-13T18:42:27.446Z,70.50
2023-03-13T18:44:55.850Z,70.49
2023-03-13T18:47:27.544Z,70.59
2023-03-13T18:49:56.068Z,70.60
2023-03-13T18:52:25.151Z,70.53
2023-03-13T18:54:54.443Z,70.64
2023-03-13T18:57:22.938Z,70.70
2023-03-13T18:59:51.627Z,70.62
2023-03-13T19:02:20.672Z,70.42
2023-03-13T19:04:49.151Z,70.50
2023-03-13T19:07:28.993Z,70.47
2023-03-13T19:09:57.450Z,70.55
2023-03-13T19:12:25.839Z,70.48
2023-03-13T19:14:54.316Z,70.58
2023-03-13T19:17:28.446Z,70.66
2023-03-13T19:19:59.318Z,70.57
2023-03-13T19:22:28.411Z,70.85
2023-03-13T19:24:56.827Z,70.77
2023-03-13T19:27:25.178Z,70.91
2023-03-13T19:29:53.375Z,70.99
2023-03-13T19:32:21.660Z,70.83
2023-03-13T19:34:49.960Z,70.78
2023-03-13T19:37:19.136Z,70.83
2023-03-13T19:39:47.364Z,70.87
2023-03-13T19:42:15.859Z,70.85
2023-03-13T19:44:44.709Z,70.64
2023-03-13T19:47:16.306Z,70.90
2023-03-13T19:49:45.663Z,70.73
2023-03-13T19:52:13.926Z,71.04
2023-03-13T19:54:42.508Z,70.92
2023-03-13T19:57:12.335Z,70.95
2023-03-13T19:59:41.681Z,71.17
2023-03-13T20:02:12.031Z,71.22
2023-03-13T20:04:42.728Z,71.10
2023-03-13T20:07:11.795Z,71.22
2023-03-13T20:09:40.370Z,71.17
2023-03-13T20:12:09.660Z,71.12
2023-03-13T20:14:38.727Z,70.95
2023-03-13T20:17:07.018Z,71.11
2023-03-13T20:19:35.641Z,71.09
2023-03-13T20:22:05.518Z,71.10
2023-03-13T20:24:33.934Z,71.20
2023-03-13T20:27:03.716Z,71.24
2023-03-13T20:29:34.123Z,71.31
2023-03-13T20:32:04.816Z,71.29
2023-03-13T20:34:34.024Z,71.32
2023-03-13T20:37:04.088Z,71.15
2023-03-13T20:39:35.586Z,71.41
2023-03-13T20:42:07.048Z,71.31
2023-03-13T20:44:35.803Z,71.25
2023-03-13T20:47:05.162Z,71.28
2023-03-13T20:49:35.288Z,71.33
2023-03-13T20:52:04.647Z,71.32
2023-03-13T20:54:33.138Z,71.17
2023-03-13T20:57:02.607Z,71.18
2023-03-13T20:59:31.988Z,71.12
2023-03-13T21:02:00.692Z,71.07
2023-03-13T21:04:29.454Z,71.03
2023-03-13T21:07:04.760Z,71.20
2023-03-13T21:09:34.750Z,71.07
2023-03-13T21:12:04.014Z,71.22
2023-03-13T21:14:33.674Z,71.09
2023-03-13T21:17:02.863Z,71.24
2023-03-13T21:19:31.606Z,71.10
2023-03-13T21:21:59.925Z,71.37
2023-03-13T21:24:28.466Z,71.28
2023-03-13T21:26:58.945Z,71.18
2023-03-13T21:29:28.461Z,71.25
2023-03-13T21:31:57.948Z,71.37
2023-03-13T21:34:26.465Z,71.33
2023-03-13T21:36:54.979Z,71.34
2023-03-13T21:39:23.549Z,71.27
2023-03-13T21:41:52.521Z,71.15
2023-03-13T21:44:21.016Z,71.49
2023-03-13T21:46:49.340Z,71.40
2023-03-13T21:49:17.753Z,71.32
2023-03-13T21:51:46.522Z,71.38
2023-03-13T21:54:14.809Z,71.30
2023-03-13T21:56:43.186Z,71.46
2023-03-13T21:59:11.935Z,71.58
2023-03-13T22:01:42.710Z,71.45
2023-03-13T22:04:11.700Z,71.42
2023-03-13T22:06:40.539Z,71.51
2023-03-13T22:09:09.302Z,71.65
2023-03-13T22:11:37.822Z,71.47
2023-03-13T22:14:07.065Z,71.45
2023-03-13T22:16:35.506Z,71.57
2023-03-13T22:19:04.275Z,71.55
2023-03-13T22:21:32.706Z,71.62
2023-03-13T22:24:01.779Z,71.43
2023-03-13T22:26:33.637Z,71.52
2023-03-13T22:29:02.113Z,71.45
2023-03-13T22:31:31.778Z,71.49
2023-03-13T22:34:00.508Z,71.58
2023-03-13T22:36:28.822Z,71.45
2023-03-13T22:38:57.301Z,71.39
2023-03-13T22:41:26.768Z,71.53
2023-03-13T22:43:55.932Z,71.55
2023-03-13T22:46:25.365Z,71.52
2023-03-13T22:48:56.459Z,71.53
2023-03-13T22:51:26.338Z,71.50
2023-03-13T22:53:54.530Z,71.44
2023-03-13T22:56:25.819Z,71.42
2023-03-13T22:58:55.995Z,71.46
2023-03-13T23:01:26.891Z,71.46
2023-03-13T23:03:55.681Z,71.52
2023-03-13T23:06:26.237Z,71.55
2023-03-13T23:08:55.114Z,71.52
2023-03-13T23:11:24.942Z,71.48
2023-03-13T23:13:54.263Z,71.44
2023-03-13T23:16:22.871Z,71.29
2023-03-13T23:18:52.301Z,71.25
2023-03-13T23:21:21.604Z,71.34
2023-03-13T23:23:54.423Z,71.34
2023-03-13T23:26:23.470Z,71.39
2023-03-13T23:28:52.961Z,71.40
2023-03-13T23:31:23.197Z,71.23
2023-03-13T23:33:52.393Z,71.27
2023-03-13T23:36:21.547Z,71.23
2023-03-13T23:38:52.253Z,71.11
2023-03-13T23:41:22.308Z,71.17
2023-03-13T23:43:51.602Z,71.13
2023-03-13T23:46:23.694Z,71.05
2023-03-13T23:48:54.309Z,71.23
2023-03-13T23:51:24.267Z,71.19
2023-03-13T23:53:54.132Z,71.10
2023-03-13T23:56:25.766Z,71.06
2023-03-13T23:58:55.208Z,71.01
